createdAt,value
2022-10-13T00:02:51.332Z,91.33
2022-10-13T00:05:59.622Z,91.53
2022-10-13T00:09:07.077Z,91.85
2022-10-13T00:12:15.281Z,92.36
2022-10-13T00:15:23.666Z,92.57
2022-10-13T00:18:31.518Z,92.57
2022-10-13T00:21:39.531Z,92.97
2022-10-13T00:24:47.956Z,93.39
2022-10-13T00:27:55.441Z,93.49
2022-10-13T00:31:03.733Z,93.55
2022-10-13T00:34:07.315Z,93.55
2022-10-13T00:37:15.125Z,93.55
2022-10-13T00:40:23.192Z,93.44
2022-10-13T00:43:30.811Z,93.30
2022-10-13T00:46:38.374Z,92.99
2022-10-13T00:49:46.277Z,92.89
2022-10-13T00:52:54.353Z,92.58
2022-10-13T00:56:02.164Z,92.58
2022-10-13T00:59:09.783Z,92.58
2022-10-13T01:02:17.891Z,92.48
2022-10-13T01:05:25.816Z,92.48
2022-10-13T01:08:33.426Z,92.63
2022-10-13T01:11:41.020Z,92.83
2022-10-13T01:14:48.854Z,92.93
2022-10-13T01:17:57.224Z,93.04
2022-10-13T01:21:05.028Z,93.04
2022-10-13T01:24:12.968Z,93.14
2022-10-13T01:27:21.192Z,93.14
2022-10-13T01:30:28.761Z,93.24
2022-10-13T01:33:36.342Z,93.44
2022-10-13T01:36:44.540Z,93.65
2022-10-13T01:39:52.031Z,93.65
2022-10-13T01:43:00.384Z,93.76
2022-10-13T01:46:08.676Z,93.96
2022-10-13T01:49:16.041Z,94.07
2022-10-13T01:52:24.345Z,94.17
2022-10-13T01:55:32.404Z,94.27
2022-10-13T01:58:39.732Z,94.27
2022-10-13T02:01:47.659Z,94.17
2022-10-13T02:04:55.635Z,94.17
2022-10-13T02:08:03.321Z,94.17
2022-10-13T02:11:11.351Z,94.17
2022-10-13T02:14:19.163Z,94.17
2022-10-13T02:17:26.845Z,94.07
2022-10-13T02:20:34.722Z,94.07
2022-10-13T02:23:42.312Z,93.96
2022-10-13T02:26:50.244Z,93.96
2022-10-13T02:29:57.676Z,93.96
2022-10-13T02:33:05.829Z,93.96
2022-10-13T02:36:13.555Z,94.07
2022-10-13T02:39:21.122Z,94.07
2022-10-13T02:42:29.271Z,94.27
2022-10-13T02:45:37.171Z,94.37
2022-10-13T02:48:44.979Z,94.48
2022-10-13T02:51:53.254Z,94.48
2022-10-13T02:55:00.523Z,94.48
2022-10-13T02:58:08.635Z,94.68
2022-10-13T03:01:16.878Z,94.58
2022-10-13T03:04:24.317Z,94.64
2022-10-13T03:07:32.528Z,94.64
2022-10-13T03:10:40.623Z,94.64
2022-10-13T03:13:47.958Z,94.64
2022-10-13T03:16:55.906Z,94.54
2022-10-13T03:20:03.771Z,94.49
2022-10-13T03:23:11.641Z,94.49
2022-10-13T03:26:18.826Z,94.43
2022-10-13T03:29:26.537Z,94.23
2022-10-13T03:32:34.449Z,94.33
2022-10-13T03:35:42.567Z,94.54
2022-10-13T03:38:50.287Z,94.54
2022-10-13T03:41:58.264Z,94.54
2022-10-13T03:45:05.995Z,94.43
2022-10-13T03:48:14.062Z,94.43
2022-10-13T03:51:21.935Z,94.33
2022-10-13T03:54:29.615Z,94.23
2022-10-13T03:57:37.697Z,94.27
2022-10-13T04:00:45.465Z,94.48
2022-10-13T04:03:53.483Z,94.89
2022-10-13T04:07:01.701Z,95.30
2022-10-13T04:10:11.391Z,95.40
2022-10-13T04:13:19.755Z,95.50
2022-10-13T04:16:27.703Z,95.61
2022-10-13T04:19:35.161Z,95.61
2022-10-13T04:22:43.190Z,95.71
2022-10-13T04:25:51.101Z,95.67
2022-10-13T04:28:58.763Z,95.77
2022-10-13T04:32:07.004Z,95.77
2022-10-13T04:35:14.994Z,95.87
2022-10-13T04:38:22.558Z,95.77
2022-10-13T04:41:30.665Z,95.97
2022-10-13T04:44:38.007Z,95.87
2022-10-13T04:47:46.115Z,95.87
2022-10-13T04:50:54.248Z,95.87
2022-10-13T04:54:01.887Z,95.87
2022-10-13T04:57:10.192Z,95.87
2022-10-13T05:00:18.287Z,95.87
2022-10-13T05:03:25.572Z,95.93
2022-10-13T05:06:33.893Z,95.83
2022-10-13T05:09:41.814Z,95.77
2022-10-13T05:12:49.155Z,95.67
2022-10-13T05:15:57.291Z,95.56
2022-10-13T05:19:04.984Z,95.46
2022-10-13T05:22:12.778Z,95.67
2022-10-13T05:25:21.077Z,95.81
2022-10-13T05:28:28.549Z,95.92
2022-10-13T05:31:36.425Z,96.12
2022-10-13T05:34:44.386Z,96.33
2022-10-13T05:37:51.649Z,96.22
2022-10-13T05:40:59.653Z,96.33
2022-10-13T05:44:07.320Z,96.43
2022-10-13T05:47:14.962Z,96.53
2022-10-13T05:50:23.065Z,96.64
2022-10-13T05:53:30.591Z,97.15
2022-10-13T05:56:38.313Z,97.41
2022-10-13T05:59:46.363Z,97.72
2022-10-13T06:02:53.912Z,97.72
2022-10-13T06:06:01.684Z,97.67
2022-10-13T06:09:09.007Z,97.47
2022-10-13T06:12:17.409Z,97.27
2022-10-13T06:15:28.174Z,97.16
2022-10-13T06:18:25.375Z,97.06
2022-10-13T06:21:33.656Z,97.06
2022-10-13T06:24:41.278Z,97.06
2022-10-13T06:27:48.937Z,97.10
2022-10-13T06:30:57.037Z,97.06
2022-10-13T06:34:04.368Z,97.37
2022-10-13T06:37:12.596Z,97.67
2022-10-13T06:40:20.541Z,97.99
2022-10-13T06:43:35.691Z,98.04
2022-10-13T06:46:32.871Z,98.04
2022-10-13T06:49:40.772Z,97.89
2022-10-13T06:52:48.109Z,97.89
2022-10-13T06:55:56.389Z,97.85
2022-10-13T06:59:04.188Z,97.60
2022-10-13T07:02:11.415Z,97.19
2022-10-13T07:05:19.526Z,96.63
2022-10-13T07:08:27.334Z,96.22
2022-10-13T07:11:35.094Z,95.81
2022-10-13T07:14:43.959Z,95.61
2022-10-13T07:17:51.525Z,95.46
2022-10-13T07:20:59.196Z,95.46
2022-10-13T07:24:07.089Z,95.46
2022-10-13T07:27:14.633Z,95.36
2022-10-13T07:30:22.320Z,95.25
2022-10-13T07:33:29.821Z,95.21
2022-10-13T07:36:37.694Z,95.31
2022-10-13T07:39:45.382Z,95.26
2022-10-13T07:42:53.024Z,95.22
2022-10-13T07:46:00.654Z,95.12
2022-10-13T07:49:11.140Z,94.36
2022-10-13T07:52:10.594Z,93.70
2022-10-13T07:55:18.195Z,93.05
2022-10-13T07:58:25.726Z,92.64
2022-10-13T08:01:33.941Z,91.31
2022-10-13T08:04:41.606Z,91.16
2022-10-13T08:07:49.278Z,90.96
2022-10-13T08:10:57.249Z,91.02
2022-10-13T08:14:04.984Z,91.02
2022-10-13T08:17:12.447Z,90.98
2022-10-13T08:20:20.501Z,90.88
2022-10-13T08:23:28.605Z,90.83
2022-10-13T08:26:36.256Z,90.32
2022-10-13T08:29:44.511Z,89.81
2022-10-13T08:32:51.708Z,90.18
2022-10-13T08:35:59.836Z,90.18
2022-10-13T08:39:08.257Z,89.87
2022-10-13T08:42:15.478Z,89.53
2022-10-13T08:48:28.528Z,88.92
2022-10-13T08:51:35.801Z,88.71
2022-10-13T08:54:43.579Z,88.46
2022-10-13T08:57:51.241Z,88.46
2022-10-13T09:00:58.812Z,88.22
2022-10-13T09:04:07.018Z,87.20
2022-10-13T09:07:14.593Z,87.26
2022-10-13T09:10:22.268Z,87.02
2022-10-13T09:13:30.435Z,85.76
2022-10-13T09:16:37.645Z,85.25
2022-10-13T09:19:45.796Z,85.11
2022-10-13T09:22:53.318Z,84.09
2022-10-13T09:26:00.981Z,83.65
2022-10-13T09:29:08.978Z,83.14
2022-10-13T09:32:16.803Z,82.90
2022-10-13T09:35:24.608Z,82.05
2022-10-13T09:38:32.431Z,81.60
2022-10-13T09:41:40.059Z,79.68
2022-10-13T09:44:47.756Z,79.74
2022-10-13T09:47:55.935Z,79.77
2022-10-13T09:51:03.805Z,77.30
2022-10-13T09:54:11.420Z,76.86
2022-10-13T09:57:19.099Z,76.22
2022-10-13T10:00:27.252Z,75.21
2022-10-13T10:03:34.921Z,74.03
2022-10-13T10:06:42.490Z,73.96
2022-10-13T10:09:50.562Z,74.87
2022-10-13T10:12:58.174Z,74.87
2022-10-13T10:16:05.891Z,74.98
2022-10-13T10:19:14.040Z,75.48
2022-10-13T10:22:21.640Z,76.09
2022-10-13T10:25:28.902Z,75.89
2022-10-13T10:28:37.020Z,75.68
2022-10-13T10:31:44.249Z,76.66
2022-10-13T10:34:52.199Z,75.45
2022-10-13T10:38:00.320Z,74.60
2022-10-13T10:41:07.620Z,73.99
2022-10-13T10:44:15.663Z,74.87
2022-10-13T10:47:23.807Z,74.13
2022-10-13T10:50:31.243Z,72.48
2022-10-13T10:53:38.886Z,72.58
2022-10-13T10:56:46.848Z,72.14
2022-10-13T10:59:54.447Z,71.23
2022-10-13T11:03:02.191Z,70.73
2022-10-13T11:06:09.753Z,71.64
2022-10-13T11:09:17.543Z,71.33
2022-10-13T11:12:25.237Z,71.73
2022-10-13T11:15:32.923Z,70.86
2022-10-13T11:18:40.943Z,71.26
2022-10-13T11:21:48.175Z,70.76
2022-10-13T11:24:56.197Z,71.47
2022-10-13T11:28:04.160Z,71.87
2022-10-13T11:31:11.298Z,71.87
2022-10-13T11:34:19.180Z,71.94
2022-10-13T11:37:26.917Z,71.23
2022-10-13T11:40:34.165Z,71.13
2022-10-13T11:43:42.223Z,70.79
2022-10-13T11:46:49.547Z,70.42
2022-10-13T11:49:57.628Z,70.32
2022-10-13T11:53:05.552Z,70.73
2022-10-13T11:56:12.738Z,70.29
2022-10-13T11:59:20.575Z,70.09
2022-10-13T12:02:28.559Z,68.98
2022-10-13T12:05:35.846Z,68.48
2022-10-13T12:08:43.854Z,68.85
2022-10-13T12:11:51.495Z,68.24
2022-10-13T12:15:02.595Z,67.60
2022-10-13T12:18:03.183Z,67.50
2022-10-13T12:21:10.956Z,66.77
2022-10-13T12:24:18.765Z,66.97
2022-10-13T12:27:26.809Z,67.20
2022-10-13T12:30:34.545Z,67.40
2022-10-13T12:33:42.169Z,66.60
2022-10-13T12:36:50.337Z,67.54
2022-10-13T12:39:57.655Z,67.54
2022-10-13T12:43:05.800Z,66.70
2022-10-13T12:46:13.504Z,67.71
2022-10-13T12:52:29.034Z,66.70
2022-10-13T12:55:36.489Z,66.30
2022-10-13T12:58:44.123Z,66.50
2022-10-13T13:01:51.660Z,67.00
2022-10-13T13:04:59.476Z,67.10
2022-10-13T13:08:07.142Z,67.37
2022-10-13T13:11:14.863Z,66.23
2022-10-13T13:14:22.877Z,66.36
2022-10-13T13:17:57.836Z,66.23
2022-10-13T13:20:35.567Z,65.39
2022-10-13T13:23:43.795Z,64.99
2022-10-13T13:26:51.260Z,64.89
2022-10-13T13:29:59.778Z,64.09
2022-10-13T13:33:08.054Z,65.53
2022-10-13T13:36:16.008Z,65.42
2022-10-13T13:39:23.957Z,65.86
2022-10-13T13:42:32.400Z,65.56
2022-10-13T13:45:40.684Z,65.89
2022-10-13T13:48:48.659Z,66.90
2022-10-13T13:51:56.662Z,66.80
2022-10-13T13:55:04.188Z,66.56
2022-10-13T13:58:12.120Z,66.56
2022-10-13T14:01:20.109Z,66.56
2022-10-13T14:04:28.184Z,65.89
2022-10-13T14:07:36.583Z,67.13
2022-10-13T14:10:44.503Z,67.74
2022-10-13T14:13:52.427Z,67.94
2022-10-13T14:17:00.331Z,68.14
2022-10-13T14:20:08.607Z,67.74
2022-10-13T14:23:16.449Z,68.44
2022-10-13T14:26:24.301Z,68.24
2022-10-13T14:29:32.639Z,68.04
2022-10-13T14:32:40.579Z,67.94
2022-10-13T14:35:48.477Z,67.23
2022-10-13T14:38:56.494Z,67.84
2022-10-13T14:42:04.075Z,67.84
2022-10-13T14:45:12.318Z,67.60
2022-10-13T14:48:24.584Z,67.71
2022-10-13T14:51:22.151Z,66.19
2022-10-13T14:54:30.437Z,66.09
2022-10-13T14:57:38.011Z,66.13
2022-10-13T15:00:45.654Z,67.07
2022-10-13T15:03:54.169Z,67.50
2022-10-13T15:07:01.637Z,68.33
2022-10-13T15:10:10.139Z,69.35
2022-10-13T15:13:18.579Z,69.28
2022-10-13T15:16:26.198Z,68.47
2022-10-13T15:19:34.544Z,69.42
2022-10-13T15:22:43.007Z,69.62
2022-10-13T15:25:50.465Z,70.32
2022-10-13T15:28:58.950Z,70.02
2022-10-13T15:32:07.053Z,70.53
2022-10-13T15:35:15.045Z,71.06
2022-10-13T15:38:23.509Z,71.37
2022-10-13T15:41:31.694Z,71.80
2022-10-13T15:45:08.226Z,72.21
2022-10-13T15:47:45.163Z,72.31
2022-10-13T15:50:53.158Z,72.65
2022-10-13T15:54:01.244Z,73.46
2022-10-13T15:57:09.189Z,73.90
2022-10-13T16:00:17.688Z,74.04
2022-10-13T16:03:25.783Z,74.74
2022-10-13T16:06:33.966Z,75.04
2022-10-13T16:09:42.522Z,75.38
2022-10-13T16:12:50.549Z,75.59
2022-10-13T16:15:58.702Z,75.93
2022-10-13T16:19:07.154Z,76.43
2022-10-13T16:22:15.037Z,76.43
2022-10-13T16:25:23.469Z,77.18
2022-10-13T16:28:31.932Z,77.59
2022-10-13T16:31:39.451Z,77.99
2022-10-13T16:34:48.280Z,78.13
2022-10-13T16:37:56.783Z,78.74
2022-10-13T16:41:04.501Z,78.94
2022-10-13T16:44:13.054Z,79.18
2022-10-13T16:47:21.548Z,79.90
2022-10-13T16:50:29.687Z,80.19
2022-10-13T16:53:38.009Z,80.74
2022-10-13T16:56:45.970Z,81.35
2022-10-13T16:59:53.959Z,81.79
2022-10-13T17:03:02.094Z,83.73
2022-10-13T17:06:10.092Z,85.60
2022-10-13T17:09:17.883Z,86.10
2022-10-13T17:12:25.783Z,86.96
2022-10-13T17:15:33.667Z,87.06
2022-10-13T17:18:41.218Z,87.16
2022-10-13T17:21:48.922Z,87.16
2022-10-13T17:24:56.987Z,87.06
2022-10-13T17:28:04.706Z,86.65
2022-10-13T17:31:12.398Z,86.35
2022-10-13T17:34:19.937Z,86.76
2022-10-13T17:37:27.564Z,87.20
2022-10-13T17:40:35.074Z,87.61
2022-10-13T17:43:43.312Z,87.61
2022-10-13T17:46:50.841Z,87.71
2022-10-13T17:49:58.684Z,87.75
2022-10-13T17:53:06.375Z,87.71
2022-10-13T17:56:13.921Z,87.81
2022-10-13T17:59:21.892Z,87.92
2022-10-13T18:02:29.386Z,88.12
2022-10-13T18:05:36.999Z,88.02
2022-10-13T18:08:44.976Z,88.02
2022-10-13T18:11:52.741Z,87.81
2022-10-13T18:15:00.369Z,87.61
2022-10-13T18:18:08.013Z,87.71
2022-10-13T18:21:15.263Z,87.85
2022-10-13T18:24:23.203Z,87.65
2022-10-13T18:27:31.154Z,88.16
2022-10-13T18:30:38.437Z,88.36
2022-10-13T18:33:46.458Z,88.67
2022-10-13T18:36:54.796Z,88.77
2022-10-13T18:40:02.139Z,89.18
2022-10-13T18:43:10.263Z,89.28
2022-10-13T18:46:17.916Z,89.22
2022-10-13T18:49:25.569Z,89.42
2022-10-13T18:52:33.553Z,90.03
2022-10-13T18:55:41.129Z,90.48
2022-10-13T18:58:48.643Z,90.89
2022-10-13T19:01:56.906Z,91.35
2022-10-13T19:05:04.579Z,92.05
2022-10-13T19:08:12.052Z,92.36
2022-10-13T19:11:19.825Z,92.30
2022-10-13T19:14:27.987Z,92.41
2022-10-13T19:17:35.417Z,92.30
2022-10-13T19:20:43.087Z,92.41
2022-10-13T19:23:50.979Z,92.55
2022-10-13T19:26:58.839Z,92.55
2022-10-13T19:30:06.859Z,92.76
2022-10-13T19:33:14.442Z,93.00
2022-10-13T19:36:21.742Z,93.10
2022-10-13T19:39:29.872Z,93.41
2022-10-13T19:42:37.720Z,93.86
2022-10-13T19:45:45.162Z,93.86
2022-10-13T19:48:53.316Z,93.96
2022-10-13T19:52:01.382Z,94.17
2022-10-13T19:55:08.705Z,94.73
2022-10-13T19:58:16.376Z,95.44
2022-10-13T20:01:24.528Z,95.34
2022-10-13T20:04:32.068Z,95.64
2022-10-13T20:07:40.255Z,95.89
2022-10-13T20:10:47.596Z,95.59
2022-10-13T20:13:55.336Z,95.69
2022-10-13T20:17:03.333Z,95.63
2022-10-13T20:20:10.692Z,95.32
2022-10-13T20:23:18.502Z,95.43
2022-10-13T20:26:26.269Z,95.32
2022-10-13T20:29:33.786Z,95.53
2022-10-13T20:32:41.305Z,95.53
2022-10-13T20:35:48.855Z,95.57
2022-10-13T20:38:56.601Z,95.67
2022-10-13T20:42:04.205Z,96.19
2022-10-13T20:45:11.940Z,96.70
2022-10-13T20:48:20.071Z,97.00
2022-10-13T20:51:27.788Z,97.11
2022-10-13T20:54:35.360Z,97.52
2022-10-13T20:57:43.310Z,97.62
2022-10-13T21:00:50.693Z,97.72
2022-10-13T21:03:58.650Z,97.62
2022-10-13T21:07:06.322Z,97.92
2022-10-13T21:10:13.627Z,98.03
2022-10-13T21:13:21.661Z,98.33
2022-10-13T21:16:29.189Z,98.49
2022-10-13T21:19:36.609Z,98.60
2022-10-13T21:22:44.384Z,98.49
2022-10-13T21:25:51.557Z,98.19
2022-10-13T21:28:59.554Z,98.08
2022-10-13T21:32:07.586Z,97.88
2022-10-13T21:35:14.887Z,97.67
2022-10-13T21:38:22.840Z,97.57
2022-10-13T21:41:30.763Z,97.67
2022-10-13T21:44:37.883Z,97.67
2022-10-13T21:47:45.792Z,97.67
2022-10-13T21:50:53.325Z,97.67
2022-10-13T21:54:00.972Z,97.53
2022-10-13T21:57:08.834Z,97.42
2022-10-13T22:00:16.476Z,97.02
2022-10-13T22:03:24.102Z,96.71
2022-10-13T22:06:32.091Z,96.71
2022-10-13T22:09:39.479Z,96.81
2022-10-13T22:12:47.087Z,96.92
2022-10-13T22:15:54.678Z,96.92
2022-10-13T22:19:02.468Z,96.87
2022-10-13T22:22:10.119Z,96.77
2022-10-13T22:25:17.502Z,96.77
2022-10-13T22:28:25.192Z,96.67
2022-10-13T22:31:32.731Z,96.56
2022-10-13T22:34:40.506Z,96.46
2022-10-13T22:37:48.460Z,96.26
2022-10-13T22:40:56.260Z,96.26
2022-10-13T22:44:03.912Z,96.21
2022-10-13T22:47:11.913Z,96.21
2022-10-13T22:50:19.046Z,96.31
2022-10-13T22:53:26.958Z,96.21
2022-10-13T22:56:34.868Z,96.21
2022-10-13T22:59:42.053Z,96.21
2022-10-13T23:02:50.207Z,96.21
2022-10-13T23:05:58.059Z,96.11
2022-10-13T23:09:05.189Z,96.21
2022-10-13T23:12:13.181Z,96.21
2022-10-13T23:15:20.739Z,96.21
2022-10-13T23:18:28.191Z,96.21
2022-10-13T23:21:36.151Z,96.21
2022-10-13T23:24:43.761Z,95.90
2022-10-13T23:27:51.324Z,95.80
2022-10-13T23:30:59.198Z,95.80
2022-10-13T23:34:06.894Z,96.01
2022-10-13T23:37:14.648Z,96.11
2022-10-13T23:40:22.143Z,96.11
2022-10-13T23:43:30.123Z,96.21
2022-10-13T23:46:37.648Z,96.42
2022-10-13T23:49:44.872Z,96.42
2022-10-13T23:52:52.849Z,96.42
2022-10-13T23:56:00.380Z,96.42
2022-10-13T23:59:08.003Z,96.42
